sensor_id;sensor_type;location;lat;lon;timestamp;P1;durP1;ratioP1;P2;durP2;ratioP2
9007;SDS011;62813;51.424;6.762;2023-04-03T00:00:45;9.60;;;4.33;;
9007;SDS011;62813;51.424;6.762;2023-04-03T00:03:15;5.27;;;4.17;;
9007;SDS011;62813;51.424;6.762;2023-04-03T00:05:54;9.80;;;3.93;;
9007;SDS011;62813;51.424;6.762;2023-04-03T00:08:25;4.97;;;4.00;;
9007;SDS011;62813;51.424;6.762;2023-04-03T00:10:55;7.53;;;4.60;;
9007;SDS011;62813;51.424;6.762;2023-04-03T00:13:32;4.50;;;3.43;;
9007;SDS011;62813;51.424;6.762;2023-04-03T00:16:00;7.27;;;4.67;;
9007;SDS011;62813;51.424;6.762;2023-04-03T00:18:33;6.37;;;3.93;;
9007;SDS011;62813;51.424;6.762;2023-04-03T00:21:04;9.97;;;3.70;;
9007;SDS011;62813;51.424;6.762;2023-04-03T00:23:37;7.63;;;3.97;;
9007;SDS011;62813;51.424;6.762;2023-04-03T00:26:08;7.17;;;4.03;;
9007;SDS011;62813;51.424;6.762;2023-04-03T00:28:38;6.27;;;3.80;;
9007;SDS011;62813;51.424;6.762;2023-04-03T00:31:06;6.53;;;4.03;;
9007;SDS011;62813;51.424;6.762;2023-04-03T00:33:36;4.87;;;3.80;;
9007;SDS011;62813;51.424;6.762;2023-04-03T00:36:08;5.73;;;4.40;;
9007;SDS011;62813;51.424;6.762;2023-04-03T00:38:40;4.60;;;3.53;;
9007;SDS011;62813;51.424;6.762;2023-04-03T00:41:08;4.70;;;3.77;;
9007;SDS011;62813;51.424;6.762;2023-04-03T00:43:38;6.97;;;4.17;;
9007;SDS011;62813;51.424;6.762;2023-04-03T00:46:10;7.00;;;3.70;;
9007;SDS011;62813;51.424;6.762;2023-04-03T00:48:53;7.13;;;4.37;;
9007;SDS011;62813;51.424;6.762;2023-04-03T00:51:32;6.67;;;3.87;;
9007;SDS011;62813;51.424;6.762;2023-04-03T00:54:08;5.90;;;4.17;;
9007;SDS011;62813;51.424;6.762;2023-04-03T00:56:42;5.97;;;4.23;;
9007;SDS011;62813;51.424;6.762;2023-04-03T00:59:13;5.40;;;4.17;;
9007;SDS011;62813;51.424;6.762;2023-04-03T01:01:46;8.73;;;4.20;;
9007;SDS011;62813;51.424;6.762;2023-04-03T01:09:57;7.90;;;5.13;;
9007;SDS011;62813;51.424;6.762;2023-04-03T01:12:31;5.50;;;4.80;;
9007;SDS011;62813;51.424;6.762;2023-04-03T01:15:14;7.17;;;4.70;;
9007;SDS011;62813;51.424;6.762;2023-04-03T01:18:01;8.20;;;5.20;;
9007;SDS011;62813;51.424;6.762;2023-04-03T01:26:18;8.83;;;5.80;;
9007;SDS011;62813;51.424;6.762;2023-04-03T01:28:50;9.00;;;6.03;;
9007;SDS011;62813;51.424;6.762;2023-04-03T01:34:59;8.97;;;5.50;;
9007;SDS011;62813;51.424;6.762;2023-04-03T01:37:37;11.77;;;6.57;;
9007;SDS011;62813;51.424;6.762;2023-04-03T01:40:14;7.27;;;5.67;;
9007;SDS011;62813;51.424;6.762;2023-04-03T01:42:49;7.60;;;5.77;;
9007;SDS011;62813;51.424;6.762;2023-04-03T01:45:20;7.97;;;5.83;;
9007;SDS011;62813;51.424;6.762;2023-04-03T01:47:48;8.87;;;5.50;;
9007;SDS011;62813;51.424;6.762;2023-04-03T01:50:25;8.63;;;5.40;;
9007;SDS011;62813;51.424;6.762;2023-04-03T01:52:53;7.10;;;5.13;;
9007;SDS011;62813;51.424;6.762;2023-04-03T01:55:36;8.90;;;5.63;;
9007;SDS011;62813;51.424;6.762;2023-04-03T01:58:08;8.07;;;5.00;;
9007;SDS011;62813;51.424;6.762;2023-04-03T02:00:40;8.77;;;4.90;;
9007;SDS011;62813;51.424;6.762;2023-04-03T02:03:12;7.27;;;4.73;;
9007;SDS011;62813;51.424;6.762;2023-04-03T02:05:47;6.50;;;4.20;;
9007;SDS011;62813;51.424;6.762;2023-04-03T02:08:15;7.80;;;4.20;;
9007;SDS011;62813;51.424;6.762;2023-04-03T02:10:50;7.87;;;5.20;;
9007;SDS011;62813;51.424;6.762;2023-04-03T02:13:26;6.13;;;4.13;;
9007;SDS011;62813;51.424;6.762;2023-04-03T02:16:08;7.23;;;4.60;;
9007;SDS011;62813;51.424;6.762;2023-04-03T02:18:42;5.60;;;4.30;;
9007;SDS011;62813;51.424;6.762;2023-04-03T02:21:14;7.93;;;4.53;;
9007;SDS011;62813;51.424;6.762;2023-04-03T02:23:42;6.67;;;3.97;;
9007;SDS011;62813;51.424;6.762;2023-04-03T02:26:13;6.63;;;4.40;;
9007;SDS011;62813;51.424;6.762;2023-04-03T02:28:47;7.47;;;3.80;;
9007;SDS011;62813;51.424;6.762;2023-04-03T02:31:27;9.13;;;3.90;;
9007;SDS011;62813;51.424;6.762;2023-04-03T02:34:12;7.47;;;3.97;;
9007;SDS011;62813;51.424;6.762;2023-04-03T02:36:57;5.37;;;3.50;;
9007;SDS011;62813;51.424;6.762;2023-04-03T02:39:37;4.97;;;4.20;;
9007;SDS011;62813;51.424;6.762;2023-04-03T02:42:15;5.33;;;3.60;;
9007;SDS011;62813;51.424;6.762;2023-04-03T02:44:48;5.60;;;3.27;;
9007;SDS011;62813;51.424;6.762;2023-04-03T02:47:28;5.30;;;3.40;;
9007;SDS011;62813;51.424;6.762;2023-04-03T02:50:18;5.03;;;3.53;;
9007;SDS011;62813;51.424;6.762;2023-04-03T02:53:25;4.93;;;3.37;;
9007;SDS011;62813;51.424;6.762;2023-04-03T02:56:09;8.23;;;3.60;;
9007;SDS011;62813;51.424;6.762;2023-04-03T02:58:46;5.63;;;3.80;;
9007;SDS011;62813;51.424;6.762;2023-04-03T03:01:22;8.87;;;3.90;;
9007;SDS011;62813;51.424;6.762;2023-04-03T03:03:50;5.90;;;3.13;;
9007;SDS011;62813;51.424;6.762;2023-04-03T03:06:20;4.20;;;2.90;;
9007;SDS011;62813;51.424;6.762;2023-04-03T03:09:03;5.97;;;3.67;;
9007;SDS011;62813;51.424;6.762;2023-04-03T03:11:45;5.33;;;3.00;;
9007;SDS011;62813;51.424;6.762;2023-04-03T03:14:18;5.60;;;3.20;;
9007;SDS011;62813;51.424;6.762;2023-04-03T03:16:53;7.73;;;3.07;;
9007;SDS011;62813;51.424;6.762;2023-04-03T03:20:27;4.30;;;2.90;;
9007;SDS011;62813;51.424;6.762;2023-04-03T03:23:32;4.97;;;2.90;;
9007;SDS011;62813;51.424;6.762;2023-04-03T03:26:42;5.70;;;2.67;;
9007;SDS011;62813;51.424;6.762;2023-04-03T03:29:09;3.80;;;2.77;;
9007;SDS011;62813;51.424;6.762;2023-04-03T03:31:39;5.73;;;3.00;;
9007;SDS011;62813;51.424;6.762;2023-04-03T03:34:18;9.67;;;3.10;;
9007;SDS011;62813;51.424;6.762;2023-04-03T03:36:47;5.63;;;2.90;;
9007;SDS011;62813;51.424;6.762;2023-04-03T03:39:16;3.73;;;2.57;;
9007;SDS011;62813;51.424;6.762;2023-04-03T03:41:45;6.57;;;2.80;;
9007;SDS011;62813;51.424;6.762;2023-04-03T03:44:12;5.30;;;2.67;;
9007;SDS011;62813;51.424;6.762;2023-04-03T03:46:41;4.80;;;2.50;;
9007;SDS011;62813;51.424;6.762;2023-04-03T03:49:08;5.70;;;2.43;;
9007;SDS011;62813;51.424;6.762;2023-04-03T03:51:35;6.93;;;2.83;;
9007;SDS011;62813;51.424;6.762;2023-04-03T03:54:03;7.67;;;2.93;;
9007;SDS011;62813;51.424;6.762;2023-04-03T03:56:36;6.77;;;2.37;;
9007;SDS011;62813;51.424;6.762;2023-04-03T03:59:07;5.10;;;2.80;;
9007;SDS011;62813;51.424;6.762;2023-04-03T04:01:35;7.23;;;2.93;;
9007;SDS011;62813;51.424;6.762;2023-04-03T04:04:02;6.37;;;2.60;;
9007;SDS011;62813;51.424;6.762;2023-04-03T04:06:29;3.63;;;2.53;;
9007;SDS011;62813;51.424;6.762;2023-04-03T04:08:55;7.00;;;2.40;;
9007;SDS011;62813;51.424;6.762;2023-04-03T04:11:22;5.47;;;2.40;;
9007;SDS011;62813;51.424;6.762;2023-04-03T04:13:49;5.37;;;2.57;;
9007;SDS011;62813;51.424;6.762;2023-04-03T04:16:16;4.37;;;2.37;;
9007;SDS011;62813;51.424;6.762;2023-04-03T04:18:43;6.67;;;2.50;;
9007;SDS011;62813;51.424;6.762;2023-04-03T04:21:09;6.00;;;2.40;;
9007;SDS011;62813;51.424;6.762;2023-04-03T04:23:36;8.73;;;2.70;;
9007;SDS011;62813;51.424;6.762;2023-04-03T04:26:03;7.47;;;2.67;;
9007;SDS011;62813;51.424;6.762;2023-04-03T04:28:29;5.93;;;2.80;;
9007;SDS011;62813;51.424;6.762;2023-04-03T04:30:56;6.93;;;2.50;;
9007;SDS011;62813;51.424;6.762;2023-04-03T04:33:23;7.13;;;2.40;;
9007;SDS011;62813;51.424;6.762;2023-04-03T04:35:50;7.10;;;2.30;;
9007;SDS011;62813;51.424;6.762;2023-04-03T04:38:18;8.30;;;2.60;;
9007;SDS011;62813;51.424;6.762;2023-04-03T04:40:44;4.80;;;2.33;;
9007;SDS011;62813;51.424;6.762;2023-04-03T04:43:11;4.40;;;2.23;;
9007;SDS011;62813;51.424;6.762;2023-04-03T04:45:41;5.00;;;2.50;;
9007;SDS011;62813;51.424;6.762;2023-04-03T04:48:08;4.10;;;2.13;;
9007;SDS011;62813;51.424;6.762;2023-04-03T04:50:34;5.67;;;2.17;;
9007;SDS011;62813;51.424;6.762;2023-04-03T04:53:02;4.43;;;2.30;;
9007;SDS011;62813;51.424;6.762;2023-04-03T04:55:30;8.47;;;2.40;;
9007;SDS011;62813;51.424;6.762;2023-04-03T04:57:57;9.03;;;2.23;;
9007;SDS011;62813;51.424;6.762;2023-04-03T05:00:23;5.97;;;2.60;;
9007;SDS011;62813;51.424;6.762;2023-04-03T05:02:50;9.40;;;2.83;;
9007;SDS011;62813;51.424;6.762;2023-04-03T05:05:17;6.63;;;2.30;;
9007;SDS011;62813;51.424;6.762;2023-04-03T05:07:43;5.20;;;2.37;;
9007;SDS011;62813;51.424;6.762;2023-04-03T05:10:13;5.77;;;2.23;;
9007;SDS011;62813;51.424;6.762;2023-04-03T05:13:11;6.23;;;2.37;;
9007;SDS011;62813;51.424;6.762;2023-04-03T05:15:41;5.90;;;2.27;;
9007;SDS011;62813;51.424;6.762;2023-04-03T05:18:09;4.97;;;2.70;;
9007;SDS011;62813;51.424;6.762;2023-04-03T05:20:39;6.70;;;2.17;;
9007;SDS011;62813;51.424;6.762;2023-04-03T05:23:10;6.70;;;2.60;;
9007;SDS011;62813;51.424;6.762;2023-04-03T05:25:48;5.43;;;2.07;;
9007;SDS011;62813;51.424;6.762;2023-04-03T05:28:18;5.33;;;2.10;;
9007;SDS011;62813;51.424;6.762;2023-04-03T05:30:58;8.20;;;2.57;;
9007;SDS011;62813;51.424;6.762;2023-04-03T05:33:26;4.87;;;2.53;;
9007;SDS011;62813;51.424;6.762;2023-04-03T05:35:54;4.67;;;2.33;;
9007;SDS011;62813;51.424;6.762;2023-04-03T05:38:44;6.20;;;2.30;;
9007;SDS011;62813;51.424;6.762;2023-04-03T05:41:15;5.40;;;2.63;;
9007;SDS011;62813;51.424;6.762;2023-04-03T05:43:46;4.30;;;1.90;;
9007;SDS011;62813;51.424;6.762;2023-04-03T05:46:27;5.77;;;2.47;;
9007;SDS011;62813;51.424;6.762;2023-04-03T05:48:57;4.37;;;2.60;;
9007;SDS011;62813;51.424;6.762;2023-04-03T05:51:34;9.17;;;3.00;;
9007;SDS011;62813;51.424;6.762;2023-04-03T05:54:04;5.70;;;2.50;;
9007;SDS011;62813;51.424;6.762;2023-04-03T05:56:36;6.97;;;2.60;;
9007;SDS011;62813;51.424;6.762;2023-04-03T05:59:03;5.10;;;2.40;;
9007;SDS011;62813;51.424;6.762;2023-04-03T06:01:29;6.90;;;2.53;;
9007;SDS011;62813;51.424;6.762;2023-04-03T06:03:57;5.63;;;2.37;;
9007;SDS011;62813;51.424;6.762;2023-04-03T06:06:26;6.63;;;2.63;;
9007;SDS011;62813;51.424;6.762;2023-04-03T06:09:09;5.40;;;2.43;;
9007;SDS011;62813;51.424;6.762;2023-04-03T06:11:36;5.73;;;2.30;;
9007;SDS011;62813;51.424;6.762;2023-04-03T06:14:03;8.80;;;2.87;;
9007;SDS011;62813;51.424;6.762;2023-04-03T06:16:30;6.70;;;2.43;;
9007;SDS011;62813;51.424;6.762;2023-04-03T06:18:56;8.47;;;3.00;;
9007;SDS011;62813;51.424;6.762;2023-04-03T06:21:24;6.10;;;2.30;;
9007;SDS011;62813;51.424;6.762;2023-04-03T06:23:51;7.57;;;2.40;;
9007;SDS011;62813;51.424;6.762;2023-04-03T06:26:19;7.70;;;2.80;;
9007;SDS011;62813;51.424;6.762;2023-04-03T06:28:47;7.53;;;2.80;;
9007;SDS011;62813;51.424;6.762;2023-04-03T06:31:14;6.60;;;2.80;;
9007;SDS011;62813;51.424;6.762;2023-04-03T06:33:41;6.63;;;2.43;;
9007;SDS011;62813;51.424;6.762;2023-04-03T06:36:09;8.47;;;2.67;;
9007;SDS011;62813;51.424;6.762;2023-04-03T06:38:38;8.33;;;2.50;;
9007;SDS011;62813;51.424;6.762;2023-04-03T06:41:05;6.87;;;2.73;;
9007;SDS011;62813;51.424;6.762;2023-04-03T06:43:32;5.23;;;2.37;;
9007;SDS011;62813;51.424;6.762;2023-04-03T06:46:00;7.30;;;2.63;;
9007;SDS011;62813;51.424;6.762;2023-04-03T06:48:27;7.27;;;2.93;;
9007;SDS011;62813;51.424;6.762;2023-04-03T06:50:57;8.57;;;2.73;;
9007;SDS011;62813;51.424;6.762;2023-04-03T06:53:24;8.77;;;2.80;;
9007;SDS011;62813;51.424;6.762;2023-04-03T06:55:51;10.17;;;2.60;;
9007;SDS011;62813;51.424;6.762;2023-04-03T06:58:18;7.33;;;2.60;;
9007;SDS011;62813;51.424;6.762;2023-04-03T07:00:48;14.47;;;3.80;;
9007;SDS011;62813;51.424;6.762;2023-04-03T07:03:14;11.23;;;3.50;;
9007;SDS011;62813;51.424;6.762;2023-04-03T07:05:42;7.07;;;2.20;;
9007;SDS011;62813;51.424;6.762;2023-04-03T07:08:11;5.67;;;2.17;;
9007;SDS011;62813;51.424;6.762;2023-04-03T07:10:38;6.70;;;2.80;;
9007;SDS011;62813;51.424;6.762;2023-04-03T07:13:05;5.73;;;2.47;;
9007;SDS011;62813;51.424;6.762;2023-04-03T07:15:32;7.73;;;2.63;;
9007;SDS011;62813;51.424;6.762;2023-04-03T07:18:00;9.67;;;2.80;;
9007;SDS011;62813;51.424;6.762;2023-04-03T07:20:27;10.17;;;2.53;;
9007;SDS011;62813;51.424;6.762;2023-04-03T07:22:54;8.33;;;2.60;;
9007;SDS011;62813;51.424;6.762;2023-04-03T07:25:21;7.07;;;2.67;;
9007;SDS011;62813;51.424;6.762;2023-04-03T07:27:48;10.63;;;2.80;;
9007;SDS011;62813;51.424;6.762;2023-04-03T07:30:16;6.43;;;2.77;;
9007;SDS011;62813;51.424;6.762;2023-04-03T07:32:42;7.13;;;2.60;;
9007;SDS011;62813;51.424;6.762;2023-04-03T07:35:20;6.07;;;2.70;;
9007;SDS011;62813;51.424;6.762;2023-04-03T07:38:12;6.03;;;2.57;;
9007;SDS011;62813;51.424;6.762;2023-04-03T07:40:39;6.30;;;2.47;;
9007;SDS011;62813;51.424;6.762;2023-04-03T07:43:06;10.30;;;2.73;;
9007;SDS011;62813;51.424;6.762;2023-04-03T07:45:34;5.20;;;3.10;;
9007;SDS011;62813;51.424;6.762;2023-04-03T07:48:03;4.53;;;2.20;;
9007;SDS011;62813;51.424;6.762;2023-04-03T07:50:30;6.20;;;2.73;;
9007;SDS011;62813;51.424;6.762;2023-04-03T07:52:58;4.80;;;2.10;;
9007;SDS011;62813;51.424;6.762;2023-04-03T07:55:25;4.93;;;2.30;;
9007;SDS011;62813;51.424;6.762;2023-04-03T07:57:52;5.13;;;2.47;;
9007;SDS011;62813;51.424;6.762;2023-04-03T08:00:21;5.50;;;2.00;;
9007;SDS011;62813;51.424;6.762;2023-04-03T08:02:48;10.07;;;2.73;;
9007;SDS011;62813;51.424;6.762;2023-04-03T08:05:19;7.83;;;2.47;;
9007;SDS011;62813;51.424;6.762;2023-04-03T08:07:47;11.60;;;2.43;;
9007;SDS011;62813;51.424;6.762;2023-04-03T08:10:15;6.97;;;2.40;;
9007;SDS011;62813;51.424;6.762;2023-04-03T08:12:42;7.27;;;2.60;;
9007;SDS011;62813;51.424;6.762;2023-04-03T08:15:12;6.27;;;2.20;;
9007;SDS011;62813;51.424;6.762;2023-04-03T08:17:38;6.83;;;2.17;;
9007;SDS011;62813;51.424;6.762;2023-04-03T08:20:05;4.10;;;2.00;;
9007;SDS011;62813;51.424;6.762;2023-04-03T08:22:33;5.20;;;2.10;;
9007;SDS011;62813;51.424;6.762;2023-04-03T08:25:00;3.63;;;2.10;;
9007;SDS011;62813;51.424;6.762;2023-04-03T08:27:28;4.43;;;1.97;;
9007;SDS011;62813;51.424;6.762;2023-04-03T08:29:55;4.00;;;2.40;;
9007;SDS011;62813;51.424;6.762;2023-04-03T08:32:23;4.57;;;1.93;;
9007;SDS011;62813;51.424;6.762;2023-04-03T08:34:50;3.67;;;2.00;;
9007;SDS011;62813;51.424;6.762;2023-04-03T08:37:17;3.97;;;1.90;;
9007;SDS011;62813;51.424;6.762;2023-04-03T08:39:45;3.13;;;1.60;;
9007;SDS011;62813;51.424;6.762;2023-04-03T08:42:15;5.30;;;1.80;;
9007;SDS011;62813;51.424;6.762;2023-04-03T08:44:59;6.03;;;2.30;;
9007;SDS011;62813;51.424;6.762;2023-04-03T08:47:28;4.93;;;2.10;;
9007;SDS011;62813;51.424;6.762;2023-04-03T08:50:04;4.33;;;1.70;;
9007;SDS011;62813;51.424;6.762;2023-04-03T08:52:37;6.53;;;1.90;;
9007;SDS011;62813;51.424;6.762;2023-04-03T08:55:21;8.13;;;2.03;;
9007;SDS011;62813;51.424;6.762;2023-04-03T08:58:10;5.97;;;2.63;;
9007;SDS011;62813;51.424;6.762;2023-04-03T09:04:11;3.40;;;1.63;;
9007;SDS011;62813;51.424;6.762;2023-04-03T09:06:44;3.80;;;1.80;;
9007;SDS011;62813;51.424;6.762;2023-04-03T09:09:35;4.67;;;1.80;;
9007;SDS011;62813;51.424;6.762;2023-04-03T09:22:46;2.93;;;1.13;;
9007;SDS011;62813;51.424;6.762;2023-04-03T09:25:27;3.87;;;1.40;;
9007;SDS011;62813;51.424;6.762;2023-04-03T09:28:00;2.63;;;1.10;;
9007;SDS011;62813;51.424;6.762;2023-04-03T09:30:28;3.60;;;1.20;;
9007;SDS011;62813;51.424;6.762;2023-04-03T09:32:55;2.43;;;1.50;;
9007;SDS011;62813;51.424;6.762;2023-04-03T09:35:28;6.13;;;1.50;;
9007;SDS011;62813;51.424;6.762;2023-04-03T09:45:51;3.60;;;1.20;;
9007;SDS011;62813;51.424;6.762;2023-04-03T09:48:23;2.83;;;1.10;;
9007;SDS011;62813;51.424;6.762;2023-04-03T09:53:27;1.60;;;0.83;;
9007;SDS011;62813;51.424;6.762;2023-04-03T09:55:57;3.00;;;1.13;;
9007;SDS011;62813;51.424;6.762;2023-04-03T09:58:27;3.47;;;1.37;;
9007;SDS011;62813;51.424;6.762;2023-04-03T10:01:22;4.30;;;1.30;;
9007;SDS011;62813;51.424;6.762;2023-04-03T10:06:50;3.63;;;1.30;;
9007;SDS011;62813;51.424;6.762;2023-04-03T10:09:32;2.03;;;1.27;;
9007;SDS011;62813;51.424;6.762;2023-04-03T10:12:06;2.93;;;1.00;;
9007;SDS011;62813;51.424;6.762;2023-04-03T10:17:23;7.87;;;0.93;;
9007;SDS011;62813;51.424;6.762;2023-04-03T10:56:06;3.20;;;1.33;;
9007;SDS011;62813;51.424;6.762;2023-04-03T11:04:36;2.47;;;1.30;;
9007;SDS011;62813;51.424;6.762;2023-04-03T11:07:17;5.03;;;1.33;;
9007;SDS011;62813;51.424;6.762;2023-04-03T11:09:52;2.20;;;1.30;;
9007;SDS011;62813;51.424;6.762;2023-04-03T11:12:25;2.67;;;1.10;;
9007;SDS011;62813;51.424;6.762;2023-04-03T11:14:55;4.80;;;1.67;;
9007;SDS011;62813;51.424;6.762;2023-04-03T11:17:28;3.00;;;1.53;;
9007;SDS011;62813;51.424;6.762;2023-04-03T11:20:16;5.73;;;1.80;;
9007;SDS011;62813;51.424;6.762;2023-04-03T11:25:40;3.33;;;1.40;;
9007;SDS011;62813;51.424;6.762;2023-04-03T11:28:13;4.30;;;1.47;;
9007;SDS011;62813;51.424;6.762;2023-04-03T11:30:53;3.07;;;1.10;;
9007;SDS011;62813;51.424;6.762;2023-04-03T11:33:46;2.57;;;1.50;;
9007;SDS011;62813;51.424;6.762;2023-04-03T11:36:38;4.33;;;1.63;;
9007;SDS011;62813;51.424;6.762;2023-04-03T11:44:50;5.00;;;1.80;;
9007;SDS011;62813;51.424;6.762;2023-04-03T11:52:58;2.63;;;1.40;;
9007;SDS011;62813;51.424;6.762;2023-04-03T12:11:15;4.60;;;1.40;;
9007;SDS011;62813;51.424;6.762;2023-04-03T12:16:26;4.23;;;1.50;;
9007;SDS011;62813;51.424;6.762;2023-04-03T12:26:38;2.40;;;1.53;;
9007;SDS011;62813;51.424;6.762;2023-04-03T12:31:45;3.23;;;1.33;;
9007;SDS011;62813;51.424;6.762;2023-04-03T12:34:26;2.20;;;1.33;;
9007;SDS011;62813;51.424;6.762;2023-04-03T12:39:40;2.23;;;1.10;;
9007;SDS011;62813;51.424;6.762;2023-04-03T12:45:23;3.10;;;1.33;;
9007;SDS011;62813;51.424;6.762;2023-04-03T12:47:53;4.60;;;1.93;;
9007;SDS011;62813;51.424;6.762;2023-04-03T12:50:24;4.27;;;1.60;;
9007;SDS011;62813;51.424;6.762;2023-04-03T12:52:59;3.23;;;1.53;;
9007;SDS011;62813;51.424;6.762;2023-04-03T12:55:31;2.93;;;1.20;;
9007;SDS011;62813;51.424;6.762;2023-04-03T12:58:21;6.00;;;1.40;;
9007;SDS011;62813;51.424;6.762;2023-04-03T13:00:59;4.07;;;1.40;;
9007;SDS011;62813;51.424;6.762;2023-04-03T13:03:48;3.53;;;1.43;;
9007;SDS011;62813;51.424;6.762;2023-04-03T13:06:25;3.93;;;1.30;;
9007;SDS011;62813;51.424;6.762;2023-04-03T13:08:58;3.40;;;1.47;;
9007;SDS011;62813;51.424;6.762;2023-04-03T13:11:27;4.10;;;1.70;;
9007;SDS011;62813;51.424;6.762;2023-04-03T13:14:04;2.90;;;1.40;;
9007;SDS011;62813;51.424;6.762;2023-04-03T13:16:40;6.27;;;1.47;;
9007;SDS011;62813;51.424;6.762;2023-04-03T13:19:15;2.27;;;1.37;;
9007;SDS011;62813;51.424;6.762;2023-04-03T13:21:43;3.40;;;1.50;;
9007;SDS011;62813;51.424;6.762;2023-04-03T13:24:11;6.23;;;1.47;;
9007;SDS011;62813;51.424;6.762;2023-04-03T13:26:44;2.97;;;1.30;;
9007;SDS011;62813;51.424;6.762;2023-04-03T13:29:20;4.40;;;1.60;;
9007;SDS011;62813;51.424;6.762;2023-04-03T13:31:57;2.10;;;1.30;;
9007;SDS011;62813;51.424;6.762;2023-04-03T13:34:42;4.40;;;1.40;;
9007;SDS011;62813;51.424;6.762;2023-04-03T13:37:26;5.63;;;1.40;;
9007;SDS011;62813;51.424;6.762;2023-04-03T13:42:35;2.43;;;1.20;;
9007;SDS011;62813;51.424;6.762;2023-04-03T13:45:24;3.93;;;1.30;;
9007;SDS011;62813;51.424;6.762;2023-04-03T13:50:54;1.93;;;1.20;;
9007;SDS011;62813;51.424;6.762;2023-04-03T13:53:30;3.07;;;1.40;;
9007;SDS011;62813;51.424;6.762;2023-04-03T13:58:36;4.60;;;1.50;;
9007;SDS011;62813;51.424;6.762;2023-04-03T14:04:19;2.30;;;1.30;;
9007;SDS011;62813;51.424;6.762;2023-04-03T14:06:46;1.93;;;1.03;;
9007;SDS011;62813;51.424;6.762;2023-04-03T14:09:14;3.00;;;1.50;;
9007;SDS011;62813;51.424;6.762;2023-04-03T14:11:44;2.00;;;1.20;;
9007;SDS011;62813;51.424;6.762;2023-04-03T14:14:14;2.20;;;1.20;;
9007;SDS011;62813;51.424;6.762;2023-04-03T14:16:48;5.63;;;1.50;;
9007;SDS011;62813;51.424;6.762;2023-04-03T14:19:23;3.83;;;1.53;;
9007;SDS011;62813;51.424;6.762;2023-04-03T14:21:57;2.70;;;1.53;;
9007;SDS011;62813;51.424;6.762;2023-04-03T14:24:34;6.00;;;1.30;;
9007;SDS011;62813;51.424;6.762;2023-04-03T14:27:02;3.53;;;1.30;;
9007;SDS011;62813;51.424;6.762;2023-04-03T14:29:30;2.10;;;1.27;;
9007;SDS011;62813;51.424;6.762;2023-04-03T14:31:57;1.97;;;1.00;;
9007;SDS011;62813;51.424;6.762;2023-04-03T14:34:40;7.33;;;1.33;;
9007;SDS011;62813;51.424;6.762;2023-04-03T14:37:22;3.90;;;1.60;;
9007;SDS011;62813;51.424;6.762;2023-04-03T14:39:58;3.50;;;1.10;;
9007;SDS011;62813;51.424;6.762;2023-04-03T14:42:40;3.03;;;1.40;;
9007;SDS011;62813;51.424;6.762;2023-04-03T14:45:14;6.30;;;1.67;;
9007;SDS011;62813;51.424;6.762;2023-04-03T14:48:00;3.70;;;1.20;;
9007;SDS011;62813;51.424;6.762;2023-04-03T14:50:31;1.77;;;1.10;;
9007;SDS011;62813;51.424;6.762;2023-04-03T14:52:58;4.50;;;1.10;;
9007;SDS011;62813;51.424;6.762;2023-04-03T14:55:26;3.57;;;1.10;;
9007;SDS011;62813;51.424;6.762;2023-04-03T14:57:54;1.90;;;1.13;;
9007;SDS011;62813;51.424;6.762;2023-04-03T15:00:21;4.00;;;1.37;;
9007;SDS011;62813;51.424;6.762;2023-04-03T15:02:49;5.97;;;1.43;;
9007;SDS011;62813;51.424;6.762;2023-04-03T15:05:17;5.07;;;1.40;;
9007;SDS011;62813;51.424;6.762;2023-04-03T15:07:50;3.97;;;1.33;;
9007;SDS011;62813;51.424;6.762;2023-04-03T15:10:21;3.57;;;1.60;;
9007;SDS011;62813;51.424;6.762;2023-04-03T15:12:50;2.40;;;1.20;;
9007;SDS011;62813;51.424;6.762;2023-04-03T15:15:18;3.03;;;1.20;;
9007;SDS011;62813;51.424;6.762;2023-04-03T15:17:47;2.40;;;1.23;;
9007;SDS011;62813;51.424;6.762;2023-04-03T15:20:18;3.47;;;1.20;;
9007;SDS011;62813;51.424;6.762;2023-04-03T15:22:49;2.53;;;1.37;;
9007;SDS011;62813;51.424;6.762;2023-04-03T15:25:16;3.07;;;1.00;;
9007;SDS011;62813;51.424;6.762;2023-04-03T15:27:43;4.37;;;1.47;;
9007;SDS011;62813;51.424;6.762;2023-04-03T15:30:14;4.07;;;1.40;;
9007;SDS011;62813;51.424;6.762;2023-04-03T15:32:42;3.63;;;1.43;;
9007;SDS011;62813;51.424;6.762;2023-04-03T15:35:09;2.77;;;1.20;;
9007;SDS011;62813;51.424;6.762;2023-04-03T15:37:36;2.87;;;1.10;;
9007;SDS011;62813;51.424;6.762;2023-04-03T15:40:03;3.97;;;1.10;;
9007;SDS011;62813;51.424;6.762;2023-04-03T15:42:32;3.17;;;1.43;;
9007;SDS011;62813;51.424;6.762;2023-04-03T15:44:59;3.90;;;1.40;;
9007;SDS011;62813;51.424;6.762;2023-04-03T15:47:27;2.50;;;1.33;;
9007;SDS011;62813;51.424;6.762;2023-04-03T15:49:54;4.17;;;1.70;;
9007;SDS011;62813;51.424;6.762;2023-04-03T15:52:21;2.47;;;1.10;;
9007;SDS011;62813;51.424;6.762;2023-04-03T15:54:48;4.93;;;1.60;;
9007;SDS011;62813;51.424;6.762;2023-04-03T15:57:15;2.23;;;1.43;;
9007;SDS011;62813;51.424;6.762;2023-04-03T15:59:42;3.40;;;1.20;;
9007;SDS011;62813;51.424;6.762;2023-04-03T16:02:09;1.50;;;1.33;;
9007;SDS011;62813;51.424;6.762;2023-04-03T16:04:39;10.53;;;1.83;;
9007;SDS011;62813;51.424;6.762;2023-04-03T16:07:07;5.43;;;1.40;;
9007;SDS011;62813;51.424;6.762;2023-04-03T16:09:35;4.63;;;1.50;;
9007;SDS011;62813;51.424;6.762;2023-04-03T16:12:05;5.17;;;1.40;;
9007;SDS011;62813;51.424;6.762;2023-04-03T16:14:32;5.60;;;1.70;;
9007;SDS011;62813;51.424;6.762;2023-04-03T16:16:59;2.53;;;1.50;;
9007;SDS011;62813;51.424;6.762;2023-04-03T16:19:26;4.60;;;1.50;;
9007;SDS011;62813;51.424;6.762;2023-04-03T16:21:54;5.90;;;1.90;;
9007;SDS011;62813;51.424;6.762;2023-04-03T16:24:25;6.87;;;2.17;;
9007;SDS011;62813;51.424;6.762;2023-04-03T16:26:54;3.17;;;1.57;;
9007;SDS011;62813;51.424;6.762;2023-04-03T16:29:22;3.13;;;1.30;;
9007;SDS011;62813;51.424;6.762;2023-04-03T16:31:48;2.67;;;1.63;;
9007;SDS011;62813;51.424;6.762;2023-04-03T16:34:16;3.47;;;1.40;;
9007;SDS011;62813;51.424;6.762;2023-04-03T16:36:43;4.23;;;1.50;;
9007;SDS011;62813;51.424;6.762;2023-04-03T16:39:10;3.50;;;1.40;;
9007;SDS011;62813;51.424;6.762;2023-04-03T16:41:36;6.57;;;1.47;;
9007;SDS011;62813;51.424;6.762;2023-04-03T16:44:04;4.00;;;1.70;;
9007;SDS011;62813;51.424;6.762;2023-04-03T16:46:30;2.87;;;1.50;;
9007;SDS011;62813;51.424;6.762;2023-04-03T16:48:57;2.80;;;1.53;;
9007;SDS011;62813;51.424;6.762;2023-04-03T16:51:24;3.13;;;1.40;;
9007;SDS011;62813;51.424;6.762;2023-04-03T16:53:51;4.07;;;1.63;;
9007;SDS011;62813;51.424;6.762;2023-04-03T16:56:18;4.13;;;1.40;;
9007;SDS011;62813;51.424;6.762;2023-04-03T16:58:48;3.10;;;1.50;;
9007;SDS011;62813;51.424;6.762;2023-04-03T17:01:16;1.77;;;1.30;;
9007;SDS011;62813;51.424;6.762;2023-04-03T17:03:44;5.50;;;1.70;;
9007;SDS011;62813;51.424;6.762;2023-04-03T17:06:11;5.27;;;1.50;;
9007;SDS011;62813;51.424;6.762;2023-04-03T17:08:43;2.30;;;1.23;;
9007;SDS011;62813;51.424;6.762;2023-04-03T17:11:11;4.87;;;1.43;;
9007;SDS011;62813;51.424;6.762;2023-04-03T17:13:38;3.73;;;1.43;;
9007;SDS011;62813;51.424;6.762;2023-04-03T17:16:05;3.00;;;1.40;;
9007;SDS011;62813;51.424;6.762;2023-04-03T17:18:37;3.53;;;1.50;;
9007;SDS011;62813;51.424;6.762;2023-04-03T17:21:11;4.23;;;1.70;;
9007;SDS011;62813;51.424;6.762;2023-04-03T17:23:39;3.83;;;1.63;;
9007;SDS011;62813;51.424;6.762;2023-04-03T17:26:11;6.27;;;1.60;;
9007;SDS011;62813;51.424;6.762;2023-04-03T17:28:38;2.50;;;1.40;;
9007;SDS011;62813;51.424;6.762;2023-04-03T17:31:09;6.63;;;1.97;;
9007;SDS011;62813;51.424;6.762;2023-04-03T17:33:36;4.90;;;1.50;;
9007;SDS011;62813;51.424;6.762;2023-04-03T17:36:02;2.37;;;1.50;;
9007;SDS011;62813;51.424;6.762;2023-04-03T17:38:33;2.63;;;1.40;;
9007;SDS011;62813;51.424;6.762;2023-04-03T17:41:01;2.57;;;1.50;;
9007;SDS011;62813;51.424;6.762;2023-04-03T17:43:30;2.33;;;1.40;;
9007;SDS011;62813;51.424;6.762;2023-04-03T17:46:04;2.20;;;1.40;;
9007;SDS011;62813;51.424;6.762;2023-04-03T17:48:35;2.87;;;1.70;;
9007;SDS011;62813;51.424;6.762;2023-04-03T17:51:07;2.63;;;1.30;;
9007;SDS011;62813;51.424;6.762;2023-04-03T17:53:41;3.77;;;1.50;;
9007;SDS011;62813;51.424;6.762;2023-04-03T17:56:13;1.80;;;1.30;;